createdAt,value
2018-09-18T00:00:32.012Z,0
2018-09-18T00:01:42.193Z,0
2018-09-18T00:02:52.017Z,0
2018-09-18T00:04:02.079Z,0
2018-09-18T00:05:11.880Z,0
2018-09-18T00:06:21.949Z,0
2018-09-18T00:07:31.926Z,0
2018-09-18T00:08:42.024Z,0
2018-09-18T00:09:52.141Z,0
2018-09-18T00:11:02.217Z,0
2018-09-18T00:12:12.029Z,0
2018-09-18T00:13:22.083Z,0
2018-09-18T00:14:32.189Z,0
2018-09-18T00:15:42.273Z,0
2018-09-18T00:16:52.341Z,0
2018-09-18T00:18:02.438Z,0
2018-09-18T00:19:12.506Z,0
2018-09-18T00:20:22.333Z,0
2018-09-18T00:21:32.409Z,0
2018-09-18T00:22:42.595Z,0
2018-09-18T00:23:52.659Z,0
2018-09-18T00:25:04.634Z,0
2018-09-18T00:26:14.436Z,0
2018-09-18T00:27:24.538Z,0
2018-09-18T00:28:34.636Z,0
2018-09-18T00:29:44.455Z,0
2018-09-18T00:30:54.543Z,0
2018-09-18T00:32:04.610Z,0
2018-09-18T00:33:14.686Z,0
2018-09-18T00:34:24.488Z,0
2018-09-18T00:35:34.558Z,0
2018-09-18T00:36:44.686Z,0
2018-09-18T00:37:54.534Z,0
2018-09-18T00:39:04.640Z,0
2018-09-18T00:40:14.707Z,0
2018-09-18T00:41:24.520Z,0
2018-09-18T00:42:34.651Z,0
2018-09-18T00:43:44.452Z,0
2018-09-18T00:44:54.528Z,0
2018-09-18T00:46:05.398Z,0
2018-09-18T00:47:15.193Z,0
2018-09-18T00:48:25.285Z,0
2018-09-18T00:49:35.355Z,0
2018-09-18T00:50:45.432Z,0
2018-09-18T00:51:55.504Z,0
2018-09-18T00:53:05.601Z,0
2018-09-18T00:54:15.740Z,0
2018-09-18T00:55:25.873Z,0
2018-09-18T00:56:35.941Z,0
2018-09-18T00:57:46.120Z,0
2018-09-18T00:58:56.205Z,0
2018-09-18T01:00:07.801Z,0
2018-09-18T01:01:17.613Z,0
2018-09-18T01:02:27.436Z,0
2018-09-18T01:03:37.237Z,0
2018-09-18T01:04:47.326Z,0
2018-09-18T01:05:57.451Z,0
2018-09-18T01:07:07.520Z,0
2018-09-18T01:08:17.327Z,0
2018-09-18T01:09:27.397Z,0
2018-09-18T01:10:37.482Z,0
2018-09-18T01:11:47.563Z,0
2018-09-18T01:12:57.384Z,0
2018-09-18T01:14:08.140Z,0
2018-09-18T01:15:18.238Z,0
2018-09-18T01:16:28.319Z,0
2018-09-18T01:17:38.415Z,0
2018-09-18T01:18:48.486Z,0
2018-09-18T01:19:58.550Z,0
2018-09-18T01:21:08.107Z,0
2018-09-18T01:22:17.926Z,0
2018-09-18T01:23:27.753Z,0
2018-09-18T01:24:37.574Z,0
2018-09-18T01:25:47.645Z,0
2018-09-18T01:26:57.447Z,0
2018-09-18T01:28:07.607Z,0
2018-09-18T01:29:17.895Z,0
2018-09-18T01:30:27.822Z,0
2018-09-18T01:31:37.897Z,0
2018-09-18T01:32:47.961Z,0
2018-09-18T01:33:58.047Z,0
2018-09-18T01:35:07.919Z,0
2018-09-18T01:36:17.990Z,0
2018-09-18T01:37:28.061Z,0
2018-09-18T01:38:38.128Z,0
2018-09-18T01:39:47.956Z,0
2018-09-18T01:40:58.036Z,0
2018-09-18T01:42:08.577Z,0
2018-09-18T01:43:18.664Z,0
2018-09-18T01:44:28.729Z,0
2018-09-18T01:45:38.812Z,0
2018-09-18T01:46:48.885Z,0
2018-09-18T01:47:58.957Z,0
2018-09-18T01:49:10.261Z,0
2018-09-18T01:50:20.077Z,0
2018-09-18T01:51:29.894Z,0
2018-09-18T01:52:40.014Z,0
2018-09-18T01:53:50.071Z,0
2018-09-18T01:55:00.163Z,0
2018-09-18T01:56:11.007Z,0
2018-09-18T01:57:20.809Z,0
2018-09-18T01:58:30.763Z,0
2018-09-18T01:59:40.568Z,0
2018-09-18T02:00:50.380Z,0
2018-09-18T02:02:00.463Z,0
2018-09-18T02:03:10.550Z,0
2018-09-18T02:04:20.635Z,0
2018-09-18T02:05:30.694Z,0
2018-09-18T02:06:40.771Z,0
2018-09-18T02:07:50.839Z,0
2018-09-18T02:09:03.012Z,0
2018-09-18T02:10:12.866Z,0
2018-09-18T02:11:22.948Z,0
2018-09-18T02:12:32.494Z,0
2018-09-18T02:13:42.296Z,0
2018-09-18T02:14:52.377Z,0
2018-09-18T02:16:02.453Z,0
2018-09-18T02:17:12.276Z,0
2018-09-18T02:18:22.790Z,0
2018-09-18T02:19:32.863Z,0
2018-09-18T02:20:42.686Z,0
2018-09-18T02:21:52.537Z,0
2018-09-18T02:23:02.364Z,0
2018-09-18T02:24:12.525Z,0
2018-09-18T02:25:22.590Z,0
2018-09-18T02:26:32.657Z,0
2018-09-18T02:27:42.438Z,0
2018-09-18T02:28:52.260Z,0
2018-09-18T02:30:02.339Z,0
2018-09-18T02:31:12.422Z,0
2018-09-18T02:32:22.246Z,0
2018-09-18T02:33:32.357Z,0
2018-09-18T02:34:42.432Z,0
2018-09-18T02:35:52.532Z,0
2018-09-18T02:37:05.382Z,0
2018-09-18T02:38:15.569Z,0
2018-09-18T02:39:25.224Z,0
2018-09-18T02:40:35.307Z,0
2018-09-18T02:41:45.402Z,0
2018-09-18T02:42:55.471Z,0
2018-09-18T02:44:06.842Z,0
2018-09-18T02:45:16.932Z,0
2018-09-18T02:46:27.000Z,0
2018-09-18T02:47:37.061Z,0
2018-09-18T02:48:47.125Z,0
2018-09-18T02:49:57.210Z,0
2018-09-18T02:51:07.078Z,0
2018-09-18T02:52:17.161Z,0
2018-09-18T02:53:27.286Z,0
2018-09-18T02:54:37.097Z,0
2018-09-18T02:55:47.180Z,0
2018-09-18T02:56:56.736Z,0
2018-09-18T02:58:06.545Z,0
2018-09-18T02:59:16.669Z,0
2018-09-18T03:00:26.487Z,0
2018-09-18T03:01:36.292Z,0
2018-09-18T03:02:46.407Z,0
2018-09-18T03:35:13.892Z,0
2018-09-18T03:36:23.964Z,0
2018-09-18T03:37:34.029Z,0
2018-09-18T03:38:43.839Z,0
2018-09-18T03:39:53.905Z,0
2018-09-18T03:41:03.694Z,0
2018-09-18T03:42:13.754Z,0
2018-09-18T03:43:23.576Z,0
2018-09-18T03:44:33.637Z,0
2018-09-18T03:45:43.715Z,0
2018-09-18T03:46:53.850Z,0
2018-09-18T03:48:03.920Z,0
2018-09-18T03:49:13.993Z,0
2018-09-18T03:50:23.533Z,0
2018-09-18T03:51:33.611Z,0
2018-09-18T03:52:43.719Z,0
2018-09-18T03:53:53.532Z,0
2018-09-18T03:55:03.356Z,0
2018-09-18T03:56:13.438Z,0
2018-09-18T03:57:23.250Z,0
2018-09-18T03:58:33.371Z,0
2018-09-18T03:59:43.482Z,0
2018-09-18T04:00:53.308Z,0
2018-09-18T04:02:03.378Z,0
2018-09-18T04:03:13.197Z,0
2018-09-18T04:04:23.320Z,0
2018-09-18T04:05:33.127Z,0
2018-09-18T04:06:42.953Z,0
2018-09-18T04:07:52.770Z,0
2018-09-18T04:09:05.490Z,0
2018-09-18T04:10:15.621Z,0
2018-09-18T04:11:25.695Z,0
2018-09-18T04:12:35.776Z,0
2018-09-18T04:13:45.855Z,0
2018-09-18T04:14:55.972Z,0
2018-09-18T04:16:06.119Z,0
2018-09-18T04:17:16.019Z,0
2018-09-18T04:18:25.926Z,0
2018-09-18T04:19:36.097Z,0
2018-09-18T04:20:46.184Z,0
2018-09-18T04:21:56.062Z,0
2018-09-18T04:23:05.872Z,0
2018-09-18T04:24:15.926Z,0
2018-09-18T04:25:25.997Z,0
2018-09-18T04:26:35.909Z,0
2018-09-18T04:27:46.053Z,0
2018-09-18T04:28:55.877Z,0
2018-09-18T04:30:05.953Z,0
2018-09-18T04:31:16.034Z,0
2018-09-18T04:32:26.107Z,0
2018-09-18T04:33:36.243Z,5
2018-09-18T04:34:46.332Z,5
2018-09-18T04:35:56.155Z,5
2018-09-18T04:37:07.190Z,5
2018-09-18T04:38:17.004Z,5
2018-09-18T04:39:27.168Z,5
2018-09-18T04:40:37.243Z,5
2018-09-18T04:41:47.052Z,10
2018-09-18T04:42:56.863Z,10
2018-09-18T04:44:07.042Z,10
2018-09-18T04:45:17.132Z,10
2018-09-18T04:46:27.212Z,10
2018-09-18T04:47:37.025Z,15
2018-09-18T04:48:47.096Z,15
2018-09-18T04:49:57.175Z,15
2018-09-18T04:51:08.754Z,15
2018-09-18T04:52:18.825Z,20
2018-09-18T04:53:28.914Z,20
2018-09-18T04:54:38.976Z,20
2018-09-18T04:55:49.046Z,25
2018-09-18T04:56:59.143Z,25
2018-09-18T04:58:09.218Z,25
2018-09-18T04:59:19.306Z,25
2018-09-18T05:00:29.384Z,30
2018-09-18T05:01:39.460Z,30
2018-09-18T05:02:49.605Z,30
2018-09-18T05:03:59.684Z,30
2018-09-18T05:05:10.416Z,35
2018-09-18T05:06:19.967Z,35
2018-09-18T05:07:30.044Z,35
2018-09-18T05:08:39.886Z,35
2018-09-18T05:09:49.972Z,40
2018-09-18T05:11:00.063Z,40
2018-09-18T05:12:10.390Z,40
2018-09-18T05:13:20.468Z,40
2018-09-18T05:14:30.275Z,45
2018-09-18T05:15:40.354Z,45
2018-09-18T05:16:50.434Z,45
2018-09-18T05:18:00.987Z,45
2018-09-18T05:19:11.067Z,50
2018-09-18T05:20:21.228Z,50
2018-09-18T05:21:31.300Z,50
2018-09-18T05:22:41.361Z,50
2018-09-18T05:23:50.915Z,55
2018-09-18T05:25:00.720Z,50
2018-09-18T05:26:10.797Z,55
2018-09-18T05:27:20.618Z,55
2018-09-18T05:28:30.711Z,55
2018-09-18T05:29:40.788Z,55
2018-09-18T05:30:50.863Z,60
2018-09-18T05:32:00.971Z,55
2018-09-18T05:33:11.034Z,60
2018-09-18T05:34:21.167Z,65
2018-09-18T05:35:30.984Z,70
2018-09-18T05:36:41.062Z,70
2018-09-18T05:37:52.138Z,65
2018-09-18T05:39:02.418Z,65
2018-09-18T05:40:14.097Z,65
2018-09-18T05:41:24.186Z,70
2018-09-18T05:42:34.272Z,70
2018-09-18T05:43:44.417Z,65
2018-09-18T05:44:54.494Z,70
2018-09-18T05:46:04.572Z,70
2018-09-18T05:47:14.673Z,70
2018-09-18T05:48:24.599Z,70
2018-09-18T05:49:34.423Z,70
2018-09-18T05:50:44.548Z,75
2018-09-18T05:51:54.671Z,75
2018-09-18T05:53:04.496Z,75
2018-09-18T05:54:14.597Z,75
2018-09-18T05:55:24.719Z,75
2018-09-18T05:56:34.823Z,80
2018-09-18T05:57:44.905Z,80
2018-09-18T05:58:54.723Z,80
2018-09-18T06:00:04.813Z,80
2018-09-18T06:01:14.735Z,80
2018-09-18T06:02:24.989Z,85
2018-09-18T06:03:35.065Z,85
2018-09-18T06:04:45.154Z,85
2018-09-18T06:05:55.017Z,85
2018-09-18T06:07:05.171Z,85
2018-09-18T06:08:15.252Z,85
2018-09-18T06:09:25.319Z,90
2018-09-18T06:10:35.449Z,90
2018-09-18T06:11:45.254Z,90
2018-09-18T06:12:55.339Z,90
2018-09-18T06:14:05.426Z,90
2018-09-18T06:15:15.505Z,95
2018-09-18T06:16:25.592Z,95
2018-09-18T06:17:35.418Z,95
2018-09-18T06:18:46.035Z,95
2018-09-18T06:19:56.187Z,95
2018-09-18T06:21:06.286Z,95
2018-09-18T06:22:16.096Z,95
2018-09-18T06:23:25.933Z,100
2018-09-18T06:24:36.094Z,100
2018-09-18T06:25:46.168Z,100
2018-09-18T06:26:55.988Z,100
2018-09-18T06:28:06.085Z,100
2018-09-18T06:29:15.897Z,100
2018-09-18T06:30:26.029Z,100
2018-09-18T06:31:35.840Z,100
2018-09-18T06:32:45.684Z,105
2018-09-18T06:33:55.757Z,105
2018-09-18T06:35:06.634Z,105
2018-09-18T06:36:16.551Z,105
2018-09-18T06:37:26.638Z,105
2018-09-18T06:38:36.742Z,105
2018-09-18T06:39:46.809Z,105
2018-09-18T06:40:56.885Z,105
2018-09-18T06:42:06.960Z,105
2018-09-18T06:43:17.035Z,105
2018-09-18T06:44:27.164Z,110
2018-09-18T06:45:36.966Z,110
2018-09-18T06:46:47.035Z,110
2018-09-18T06:47:57.071Z,110
2018-09-18T06:49:07.155Z,110
2018-09-18T06:50:16.961Z,110
2018-09-18T06:51:27.030Z,110
2018-09-18T06:52:37.111Z,110
2018-09-18T06:53:47.247Z,110
2018-09-18T06:54:57.523Z,110
2018-09-18T06:56:07.610Z,115
2018-09-18T06:57:17.816Z,115
2018-09-18T06:58:27.692Z,115
2018-09-18T06:59:37.509Z,115
2018-09-18T07:00:47.336Z,115
2018-09-18T07:01:57.399Z,115
2018-09-18T07:03:07.515Z,115
2018-09-18T07:04:17.606Z,115
2018-09-18T07:05:27.832Z,125
2018-09-18T07:06:38.005Z,120
2018-09-18T07:07:48.077Z,120
2018-09-18T07:08:58.160Z,120
2018-09-18T07:10:08.764Z,120
2018-09-18T07:11:18.891Z,125
2018-09-18T07:12:28.984Z,120
2018-09-18T07:13:39.076Z,120
2018-09-18T07:14:49.167Z,125
2018-09-18T07:15:59.300Z,120
2018-09-18T07:17:09.488Z,125
2018-09-18T07:18:19.935Z,120
2018-09-18T07:19:29.764Z,120
2018-09-18T07:20:39.851Z,120
2018-09-18T07:21:49.942Z,120
2018-09-18T07:23:00.050Z,120
2018-09-18T07:24:11.128Z,125
2018-09-18T07:25:21.221Z,125
2018-09-18T07:26:31.314Z,125
2018-09-18T07:27:41.407Z,125
2018-09-18T07:28:51.484Z,125
2018-09-18T07:30:01.584Z,125
2018-09-18T07:31:11.688Z,125
2018-09-18T07:32:21.234Z,125
2018-09-18T07:33:31.312Z,125
2018-09-18T07:34:41.200Z,130
2018-09-18T07:35:51.295Z,130
2018-09-18T07:37:01.381Z,130
2018-09-18T07:38:11.483Z,130
2018-09-18T07:39:21.315Z,130
2018-09-18T07:40:31.385Z,130
2018-09-18T07:41:41.478Z,130
2018-09-18T07:42:51.560Z,130
2018-09-18T07:44:01.644Z,130
2018-09-18T07:45:11.779Z,135
2018-09-18T07:46:21.858Z,135
2018-09-18T07:47:31.927Z,135
2018-09-18T07:48:42.014Z,135
2018-09-18T07:49:51.937Z,135
2018-09-18T07:51:02.079Z,135
2018-09-18T07:52:12.038Z,135
2018-09-18T07:53:22.117Z,135
2018-09-18T07:54:31.932Z,135
2018-09-18T07:55:42.039Z,135
2018-09-18T07:56:52.125Z,140
2018-09-18T07:58:02.208Z,140
2018-09-18T07:59:12.285Z,140
2018-09-18T08:00:22.503Z,140
2018-09-18T08:01:32.573Z,140
2018-09-18T08:02:42.647Z,140
2018-09-18T08:03:52.773Z,140
2018-09-18T08:05:03.780Z,140
2018-09-18T08:06:13.593Z,140
2018-09-18T08:07:23.694Z,140
2018-09-18T08:08:33.783Z,145
2018-09-18T08:09:44.013Z,145
2018-09-18T08:10:54.814Z,145
2018-09-18T08:12:04.938Z,145
2018-09-18T08:13:15.037Z,145
2018-09-18T08:14:24.848Z,145
2018-09-18T08:15:34.936Z,145
2018-09-18T08:16:45.060Z,145
2018-09-18T08:17:54.988Z,145
2018-09-18T08:19:05.692Z,150
2018-09-18T08:20:15.705Z,150
2018-09-18T08:21:25.849Z,150
2018-09-18T08:22:35.961Z,150
2018-09-18T08:23:46.101Z,150
2018-09-18T08:24:56.198Z,150
2018-09-18T08:26:06.036Z,150
2018-09-18T08:27:15.858Z,150
2018-09-18T08:28:25.978Z,150
2018-09-18T08:29:36.177Z,150
2018-09-18T08:30:46.254Z,155
2018-09-18T08:31:56.333Z,155
2018-09-18T08:33:07.030Z,155
2018-09-18T08:34:17.094Z,155
2018-09-18T08:35:26.911Z,155
2018-09-18T08:36:37.019Z,155
2018-09-18T08:37:47.097Z,155
2018-09-18T08:38:57.216Z,155
2018-09-18T08:40:08.346Z,155
2018-09-18T08:41:18.724Z,155
2018-09-18T08:42:28.836Z,155
2018-09-18T08:43:39.051Z,160
2018-09-18T08:44:48.946Z,160
2018-09-18T08:45:59.190Z,160
2018-09-18T08:47:09.276Z,160
2018-09-18T08:48:19.441Z,160
2018-09-18T08:49:29.705Z,160
2018-09-18T08:50:39.538Z,160
2018-09-18T08:51:50.092Z,160
2018-09-18T08:53:00.447Z,160
2018-09-18T08:54:10.309Z,160
2018-09-18T08:55:20.178Z,165
2018-09-18T08:56:30.389Z,160
2018-09-18T08:57:40.476Z,165
2018-09-18T08:58:50.356Z,165
2018-09-18T09:00:00.442Z,165
2018-09-18T09:01:10.404Z,165
2018-09-18T09:02:20.539Z,165
2018-09-18T09:03:30.431Z,165
2018-09-18T09:04:40.610Z,165
2018-09-18T09:05:50.860Z,165
2018-09-18T09:07:01.089Z,165
2018-09-18T09:08:12.323Z,165
2018-09-18T09:09:22.844Z,165
2018-09-18T09:10:33.421Z,165
2018-09-18T09:11:43.595Z,165
2018-09-18T09:12:53.846Z,170
2018-09-18T09:14:04.037Z,170
2018-09-18T09:15:14.195Z,170
2018-09-18T09:16:24.055Z,170
2018-09-18T09:17:34.268Z,170
2018-09-18T09:18:44.646Z,170
2018-09-18T09:19:54.803Z,170
2018-09-18T09:21:05.259Z,170
2018-09-18T09:22:16.268Z,170
2018-09-18T09:23:26.060Z,170
2018-09-18T09:24:36.300Z,170
2018-09-18T09:25:46.458Z,170
2018-09-18T09:26:57.186Z,170
2018-09-18T09:28:07.711Z,170
2018-09-18T09:29:17.586Z,170
2018-09-18T09:30:28.036Z,170
2018-09-18T09:31:38.206Z,170
2018-09-18T09:32:48.342Z,175
2018-09-18T09:33:58.429Z,175
2018-09-18T09:35:08.551Z,175
2018-09-18T09:36:18.774Z,175
2018-09-18T09:37:28.869Z,175
2018-09-18T09:38:39.089Z,175
2018-09-18T09:39:49.196Z,175
2018-09-18T09:40:59.282Z,175
2018-09-18T09:42:09.165Z,170
2018-09-18T09:43:19.037Z,175
2018-09-18T09:44:29.117Z,175
2018-09-18T09:45:39.219Z,175
2018-09-18T09:46:49.321Z,175
2018-09-18T09:47:59.409Z,175
2018-09-18T09:49:09.234Z,175
2018-09-18T09:50:19.351Z,175
2018-09-18T09:51:29.811Z,175
2018-09-18T09:52:39.953Z,175
2018-09-18T09:53:50.041Z,175
2018-09-18T09:55:00.123Z,175
2018-09-18T09:56:10.236Z,175
2018-09-18T09:57:20.431Z,175
2018-09-18T09:58:30.514Z,175
2018-09-18T09:59:40.589Z,175
2018-09-18T10:00:50.690Z,175
2018-09-18T10:02:01.205Z,175
2018-09-18T10:03:11.188Z,175
2018-09-18T10:04:21.283Z,175
2018-09-18T10:05:31.427Z,175
2018-09-18T10:06:41.546Z,175
2018-09-18T10:07:51.679Z,175
2018-09-18T10:09:03.270Z,175
2018-09-18T10:10:13.091Z,175
2018-09-18T10:11:23.228Z,175
2018-09-18T10:12:33.351Z,175
2018-09-18T10:13:43.495Z,175
2018-09-18T10:14:53.756Z,175
2018-09-18T10:16:03.887Z,180
2018-09-18T10:17:14.066Z,175
2018-09-18T10:18:24.305Z,180
2018-09-18T10:19:34.119Z,180
2018-09-18T10:20:44.227Z,180
2018-09-18T10:21:54.325Z,175
2018-09-18T10:23:04.501Z,180
2018-09-18T10:24:14.621Z,180
2018-09-18T10:25:24.562Z,180
2018-09-18T10:26:35.274Z,180
2018-09-18T10:27:45.486Z,175
2018-09-18T10:28:55.685Z,180
2018-09-18T10:30:05.791Z,180
2018-09-18T10:31:16.001Z,180
2018-09-18T10:32:26.146Z,180
2018-09-18T10:33:35.716Z,180
2018-09-18T10:34:45.590Z,180
2018-09-18T10:35:55.886Z,180
2018-09-18T10:37:06.145Z,180
2018-09-18T10:38:16.514Z,180
2018-09-18T10:39:26.873Z,180
2018-09-18T10:40:36.985Z,180
2018-09-18T10:41:47.525Z,180
2018-09-18T10:42:58.351Z,180
2018-09-18T10:44:08.647Z,180
2018-09-18T10:45:18.492Z,185
2018-09-18T10:46:28.690Z,180
2018-09-18T10:47:38.681Z,180
2018-09-18T10:48:48.824Z,180
2018-09-18T10:49:58.940Z,180
2018-09-18T10:51:08.507Z,180
2018-09-18T10:52:18.696Z,180
2018-09-18T10:53:28.830Z,180
2018-09-18T10:54:38.924Z,180
2018-09-18T10:55:49.109Z,185
2018-09-18T10:56:58.936Z,180
2018-09-18T10:58:09.078Z,185
2018-09-18T10:59:19.168Z,185
2018-09-18T11:00:29.343Z,185
2018-09-18T11:01:39.249Z,185
2018-09-18T11:02:49.127Z,185
2018-09-18T11:03:59.150Z,185
2018-09-18T11:05:09.076Z,185
2018-09-18T11:06:18.681Z,190
2018-09-18T11:07:28.650Z,185
2018-09-18T11:08:39.103Z,185
2018-09-18T11:09:49.816Z,185
2018-09-18T11:11:00.017Z,190
2018-09-18T11:12:10.611Z,190
2018-09-18T11:13:21.053Z,195
2018-09-18T11:14:31.241Z,190
2018-09-18T11:15:42.145Z,190
2018-09-18T11:16:52.664Z,190
2018-09-18T11:18:03.344Z,190
2018-09-18T11:19:13.600Z,190
2018-09-18T11:20:23.933Z,190
2018-09-18T11:21:34.217Z,190
2018-09-18T11:22:43.889Z,190
2018-09-18T11:23:54.239Z,190
2018-09-18T11:25:04.908Z,195
2018-09-18T11:26:14.837Z,195
2018-09-18T11:27:24.751Z,195
2018-09-18T11:28:34.631Z,195
2018-09-18T11:29:44.351Z,200
2018-09-18T11:30:54.500Z,195
2018-09-18T11:32:04.747Z,195
2018-09-18T11:33:14.719Z,195
2018-09-18T11:34:24.880Z,195
2018-09-18T11:35:34.968Z,195
2018-09-18T11:36:45.044Z,195
2018-09-18T11:37:55.177Z,200
2018-09-18T11:39:05.325Z,195
2018-09-18T11:40:15.417Z,195
2018-09-18T11:41:25.488Z,195
2018-09-18T11:42:35.581Z,195
2018-09-18T11:43:45.672Z,200
2018-09-18T11:44:55.765Z,195
2018-09-18T11:46:07.557Z,195
2018-09-18T11:47:17.211Z,195
2018-09-18T11:48:27.049Z,200
2018-09-18T11:49:36.891Z,200
2018-09-18T11:50:46.747Z,200
2018-09-18T11:51:56.825Z,200
2018-09-18T11:53:07.102Z,200
2018-09-18T11:54:17.327Z,200
2018-09-18T11:55:27.411Z,200
2018-09-18T11:56:37.565Z,200
2018-09-18T11:57:47.083Z,200
2018-09-18T11:58:57.175Z,200
2018-09-18T12:00:07.002Z,200
2018-09-18T12:01:17.094Z,200
2018-09-18T12:02:26.925Z,200
2018-09-18T12:03:37.019Z,200
2018-09-18T12:04:47.858Z,200
2018-09-18T12:05:58.067Z,200
2018-09-18T12:07:07.900Z,200
2018-09-18T12:08:18.012Z,200
2018-09-18T12:09:27.863Z,200
2018-09-18T12:10:37.972Z,200
2018-09-18T12:11:48.076Z,200
2018-09-18T12:12:58.176Z,200
2018-09-18T12:14:08.264Z,200
2018-09-18T12:15:18.084Z,200
2018-09-18T12:16:28.165Z,200
2018-09-18T12:17:38.259Z,200
2018-09-18T12:18:48.350Z,200
2018-09-18T12:19:58.179Z,200
2018-09-18T12:21:08.036Z,200
2018-09-18T12:22:18.692Z,200
2018-09-18T12:23:28.411Z,200
2018-09-18T12:24:38.508Z,200
2018-09-18T12:25:48.578Z,200
2018-09-18T12:26:58.441Z,200
2018-09-18T12:28:10.767Z,195
2018-09-18T12:29:20.337Z,195
2018-09-18T12:30:30.205Z,195
2018-09-18T12:31:40.316Z,195
2018-09-18T12:32:50.146Z,195
2018-09-18T12:34:00.371Z,195
2018-09-18T12:35:10.531Z,195
2018-09-18T12:36:20.620Z,195
2018-09-18T12:37:30.432Z,190
2018-09-18T12:38:40.513Z,190
2018-09-18T12:39:50.614Z,190
2018-09-18T12:41:00.707Z,190
2018-09-18T12:42:12.195Z,185
2018-09-18T12:43:22.132Z,185
2018-09-18T12:44:32.243Z,185
2018-09-18T12:45:42.375Z,190
2018-09-18T12:46:52.510Z,185
2018-09-18T12:48:05.802Z,185
2018-09-18T12:49:16.205Z,185
2018-09-18T12:50:28.029Z,180
2018-09-18T12:51:38.069Z,180
2018-09-18T12:52:48.154Z,180
2018-09-18T12:53:58.930Z,180
2018-09-18T12:55:09.051Z,180
2018-09-18T12:56:19.608Z,180
2018-09-18T12:57:30.620Z,180
2018-09-18T12:58:41.271Z,180
2018-09-18T12:59:52.048Z,180
2018-09-18T13:01:02.308Z,180
2018-09-18T13:02:12.227Z,180
2018-09-18T13:03:22.058Z,175
2018-09-18T13:04:32.156Z,175
2018-09-18T13:05:42.046Z,175
2018-09-18T13:06:52.481Z,175
2018-09-18T13:08:02.857Z,175
2018-09-18T13:09:13.041Z,175
2018-09-18T13:10:23.261Z,175
2018-09-18T13:11:33.443Z,175
2018-09-18T13:12:43.621Z,175
2018-09-18T13:13:53.918Z,175
2018-09-18T13:15:04.076Z,175
2018-09-18T13:16:14.257Z,175
2018-09-18T13:17:24.694Z,175
2018-09-18T13:18:34.883Z,175
2018-09-18T13:19:44.970Z,170
2018-09-18T13:20:55.113Z,170
2018-09-18T13:22:05.052Z,170
2018-09-18T13:23:15.161Z,170
2018-09-18T13:24:25.257Z,170
2018-09-18T13:25:35.372Z,170
2018-09-18T13:26:45.219Z,170
2018-09-18T13:27:55.770Z,170
2018-09-18T13:29:06.204Z,165
2018-09-18T13:30:16.459Z,165
2018-09-18T13:31:26.557Z,165
2018-09-18T13:32:36.257Z,165
2018-09-18T13:33:46.418Z,165
2018-09-18T13:34:56.505Z,165
2018-09-18T13:36:06.598Z,165
2018-09-18T13:37:16.704Z,165
2018-09-18T13:38:26.835Z,165
2018-09-18T13:39:36.962Z,160
2018-09-18T13:40:47.439Z,160
2018-09-18T13:41:57.611Z,160
2018-09-18T13:43:07.739Z,160
2018-09-18T13:44:17.868Z,160
2018-09-18T13:45:27.967Z,160
2018-09-18T13:46:37.597Z,160
2018-09-18T13:47:47.729Z,160
2018-09-18T13:48:57.567Z,160
2018-09-18T13:50:07.724Z,155
2018-09-18T13:51:17.868Z,155
2018-09-18T13:52:27.983Z,155
2018-09-18T13:53:38.102Z,155
2018-09-18T13:54:48.195Z,155
2018-09-18T13:55:58.379Z,155
2018-09-18T13:57:08.520Z,150
2018-09-18T13:58:18.356Z,150
2018-09-18T13:59:28.704Z,150
2018-09-18T14:00:38.860Z,150
2018-09-18T14:01:50.530Z,150
2018-09-18T14:03:00.725Z,150
2018-09-18T14:04:10.992Z,150
2018-09-18T14:05:21.115Z,150
2018-09-18T14:06:30.970Z,150
2018-09-18T14:10:18.753Z,150
2018-09-18T14:11:28.601Z,150
2018-09-18T14:12:38.440Z,145
2018-09-18T14:13:48.273Z,145
2018-09-18T14:14:59.439Z,145
2018-09-18T14:16:09.456Z,145
2018-09-18T14:17:19.544Z,145
2018-09-18T14:18:29.665Z,145
2018-09-18T14:19:39.535Z,145
2018-09-18T14:20:49.645Z,140
2018-09-18T14:21:59.532Z,140
2018-09-18T14:23:09.709Z,140
2018-09-18T14:24:19.856Z,140
2018-09-18T14:25:30.011Z,140
2018-09-18T14:26:40.948Z,140
2018-09-18T14:27:50.865Z,140
2018-09-18T14:29:03.342Z,140
2018-09-18T14:30:13.187Z,140
2018-09-18T14:31:23.295Z,135
2018-09-18T14:32:33.774Z,135
2018-09-18T14:33:43.908Z,135
2018-09-18T14:34:54.535Z,135
2018-09-18T14:36:04.762Z,135
2018-09-18T14:37:14.884Z,130
2018-09-18T14:38:24.978Z,130
2018-09-18T14:39:35.209Z,130
2018-09-18T14:40:45.589Z,130
2018-09-18T14:41:55.154Z,130
2018-09-18T14:43:04.973Z,130
2018-09-18T14:44:14.804Z,125
2018-09-18T14:45:25.319Z,125
2018-09-18T14:46:35.430Z,125
2018-09-18T14:47:45.775Z,125
2018-09-18T14:48:55.961Z,125
2018-09-18T14:50:08.164Z,125
2018-09-18T14:51:19.226Z,120
2018-09-18T14:52:29.361Z,120
2018-09-18T14:53:38.920Z,120
2018-09-18T14:54:49.010Z,120
2018-09-18T14:55:59.093Z,120
2018-09-18T14:57:10.143Z,115
2018-09-18T14:58:20.224Z,115
2018-09-18T14:59:30.376Z,115
2018-09-18T15:00:40.470Z,115
2018-09-18T15:01:50.570Z,110
2018-09-18T15:03:01.365Z,110
2018-09-18T15:04:11.480Z,110
2018-09-18T15:05:21.608Z,110
2018-09-18T15:06:31.691Z,110
2018-09-18T15:07:41.818Z,110
2018-09-18T15:08:51.950Z,105
2018-09-18T15:10:02.208Z,105
2018-09-18T15:11:12.306Z,105
2018-09-18T15:12:22.430Z,105
2018-09-18T15:13:32.548Z,100
2018-09-18T15:14:43.073Z,100
2018-09-18T15:15:53.081Z,100
2018-09-18T15:17:03.222Z,100
2018-09-18T15:18:13.057Z,100
2018-09-18T15:19:23.164Z,100
2018-09-18T15:20:33.260Z,100
2018-09-18T15:21:43.963Z,100
2018-09-18T15:22:53.768Z,100
2018-09-18T15:24:03.864Z,100
2018-09-18T15:25:13.937Z,100
2018-09-18T15:26:23.885Z,95
2018-09-18T15:27:33.968Z,95
2018-09-18T15:28:44.177Z,95
2018-09-18T15:29:54.286Z,95
2018-09-18T15:31:04.453Z,95
2018-09-18T15:32:14.949Z,90
2018-09-18T15:33:25.178Z,90
2018-09-18T15:34:35.279Z,90
2018-09-18T15:35:45.389Z,90
2018-09-18T15:36:55.538Z,85
2018-09-18T15:38:07.886Z,85
2018-09-18T15:39:17.722Z,85
2018-09-18T15:40:27.567Z,85
2018-09-18T15:41:37.690Z,80
2018-09-18T15:42:47.792Z,80
2018-09-18T15:43:57.719Z,80
2018-09-18T15:45:08.850Z,80
2018-09-18T15:46:18.889Z,75
2018-09-18T15:47:29.122Z,75
2018-09-18T15:48:39.728Z,75
2018-09-18T15:49:49.621Z,70
2018-09-18T15:50:59.800Z,70
2018-09-18T15:52:10.722Z,70
2018-09-18T15:53:20.832Z,65
2018-09-18T15:54:30.943Z,65
2018-09-18T15:55:41.105Z,65
2018-09-18T15:56:50.931Z,65
2018-09-18T15:58:01.846Z,60
2018-09-18T15:59:11.691Z,60
2018-09-18T16:00:21.886Z,60
2018-09-18T16:01:32.506Z,55
2018-09-18T16:02:42.632Z,55
2018-09-18T16:03:53.150Z,55
2018-09-18T16:05:03.310Z,55
2018-09-18T16:06:12.900Z,55
2018-09-18T16:07:23.004Z,55
2018-09-18T16:08:33.106Z,55
2018-09-18T16:09:43.401Z,50
2018-09-18T16:10:53.553Z,50
2018-09-18T16:12:03.393Z,50
2018-09-18T16:13:13.231Z,50
2018-09-18T16:14:23.237Z,45
2018-09-18T16:16:44.224Z,45
2018-09-18T16:17:54.422Z,45
2018-09-18T16:19:04.596Z,40
2018-09-18T16:20:14.786Z,40
2018-09-18T16:21:24.929Z,40
2018-09-18T16:22:35.190Z,40
2018-09-18T16:23:45.304Z,35
2018-09-18T16:24:55.835Z,35
2018-09-18T16:26:06.007Z,35
2018-09-18T16:27:16.203Z,30
2018-09-18T16:28:26.048Z,30
2018-09-18T16:29:36.228Z,30
2018-09-18T16:30:46.237Z,30
2018-09-18T16:31:55.924Z,25
2018-09-18T16:33:06.156Z,25
2018-09-18T16:34:16.278Z,25
2018-09-18T16:35:26.416Z,25
2018-09-18T16:36:36.632Z,20
2018-09-18T16:37:46.861Z,20
2018-09-18T16:38:57.033Z,20
2018-09-18T16:40:07.399Z,20
2018-09-18T16:41:17.537Z,15
2018-09-18T16:42:27.855Z,15
2018-09-18T16:43:38.008Z,15
2018-09-18T16:44:48.108Z,15
2018-09-18T16:45:58.076Z,15
2018-09-18T16:47:08.270Z,10
2018-09-18T16:48:18.306Z,10
2018-09-18T16:49:28.158Z,10
2018-09-18T16:50:37.743Z,10
2018-09-18T16:51:47.909Z,10
2018-09-18T16:52:58.024Z,10
2018-09-18T16:54:08.231Z,5
2018-09-18T16:55:18.983Z,5
2018-09-18T16:56:29.083Z,5
2018-09-18T16:57:39.179Z,5
2018-09-18T16:58:49.462Z,5
2018-09-18T16:59:59.628Z,5
2018-09-18T17:01:09.488Z,5
2018-09-18T17:02:20.102Z,0
2018-09-18T17:03:29.974Z,0
2018-09-18T17:04:40.550Z,0
2018-09-18T17:05:50.835Z,0